Terminal Aerodrome Forecast
Issued by NWS

Home | Current Version | Previous Version | Graphics & Text | Print | Product List | Glossary On
Versions: 1 2 3 4 5 6 7 8 9 10 11 12 13 14 15 16 17 18 19 20 21 22 23
000
FTUS43 KPAH 192320
TAFCGI
TAF
KCGI 192320Z 2000/2024 VRB03KT 1SM -SHRA BR OVC002
      TEMPO 2000/2004 1/2SM -DZ FG OVC001
     FM200400 VRB02KT 1 1/2SM BR VCSH OVC003
     FM200600 VRB02KT 3SM BR OVC003
     FM201400 18005KT 4SM BR OVC005
     FM201800 19009KT 6SM BR OVC012=

USA.gov is the U.S. government's official web portal to all federal, state and local government web resources and services.